sensor_id;sensor_type;location;lat;lon;timestamp;temperature;humidity
41944;DHT22;27636;52.610;13.244;2022-12-20T00:01:08;4.10;99.90
41944;DHT22;27636;52.610;13.244;2022-12-20T00:06:12;4.00;99.90
41944;DHT22;27636;52.610;13.244;2022-12-20T00:11:16;4.00;99.90
41944;DHT22;27636;52.610;13.244;2022-12-20T00:16:22;4.10;99.90
41944;DHT22;27636;52.610;13.244;2022-12-20T00:21:28;4.20;99.90
41944;DHT22;27636;52.610;13.244;2022-12-20T00:26:32;4.20;99.90
41944;DHT22;27636;52.610;13.244;2022-12-20T00:31:37;4.20;99.90
41944;DHT22;27636;52.610;13.244;2022-12-20T00:36:41;4.20;99.90
41944;DHT22;27636;52.610;13.244;2022-12-20T00:41:44;4.20;99.90
41944;DHT22;27636;52.610;13.244;2022-12-20T00:46:50;4.20;99.90
41944;DHT22;27636;52.610;13.244;2022-12-20T00:51:53;4.20;99.90
41944;DHT22;27636;52.610;13.244;2022-12-20T00:56:57;4.20;99.90
41944;DHT22;27636;52.610;13.244;2022-12-20T01:02:01;4.20;99.90
41944;DHT22;27636;52.610;13.244;2022-12-20T01:07:05;4.10;99.90
41944;DHT22;27636;52.610;13.244;2022-12-20T01:12:08;4.20;99.90
41944;DHT22;27636;52.610;13.244;2022-12-20T01:17:13;4.30;99.90
41944;DHT22;27636;52.610;13.244;2022-12-20T01:22:17;4.30;99.90
41944;DHT22;27636;52.610;13.244;2022-12-20T01:27:20;4.20;99.90
41944;DHT22;27636;52.610;13.244;2022-12-20T01:32:25;4.30;99.90
41944;DHT22;27636;52.610;13.244;2022-12-20T01:37:28;4.30;99.90
41944;DHT22;27636;52.610;13.244;2022-12-20T01:42:32;4.40;99.90
41944;DHT22;27636;52.610;13.244;2022-12-20T01:47:36;4.50;99.90
41944;DHT22;27636;52.610;13.244;2022-12-20T01:52:42;4.40;99.90
41944;DHT22;27636;52.610;13.244;2022-12-20T01:57:49;4.40;99.90
41944;DHT22;27636;52.610;13.244;2022-12-20T02:02:59;4.20;99.90
41944;DHT22;27636;52.610;13.244;2022-12-20T02:08:04;4.20;99.90
41944;DHT22;27636;52.610;13.244;2022-12-20T02:13:13;4.20;99.90
41944;DHT22;27636;52.610;13.244;2022-12-20T02:18:26;4.00;99.90
41944;DHT22;27636;52.610;13.244;2022-12-20T02:29:14;4.30;99.90
41944;DHT22;27636;52.610;13.244;2022-12-20T02:34:24;4.20;99.90
41944;DHT22;27636;52.610;13.244;2022-12-20T02:39:30;4.30;99.90
41944;DHT22;27636;52.610;13.244;2022-12-20T02:44:37;4.40;99.90
41944;DHT22;27636;52.610;13.244;2022-12-20T02:50:02;4.50;99.90
41944;DHT22;27636;52.610;13.244;2022-12-20T02:55:06;4.60;99.90
41944;DHT22;27636;52.610;13.244;2022-12-20T03:00:14;4.50;99.90
41944;DHT22;27636;52.610;13.244;2022-12-20T03:05:22;4.50;99.90
41944;DHT22;27636;52.610;13.244;2022-12-20T03:10:27;4.50;99.90
41944;DHT22;27636;52.610;13.244;2022-12-20T03:15:30;4.70;99.90
41944;DHT22;27636;52.610;13.244;2022-12-20T03:20:38;4.70;99.90
41944;DHT22;27636;52.610;13.244;2022-12-20T03:25:41;4.70;99.90
41944;DHT22;27636;52.610;13.244;2022-12-20T03:30:48;4.80;99.90
41944;DHT22;27636;52.610;13.244;2022-12-20T03:35:53;4.70;99.90
41944;DHT22;27636;52.610;13.244;2022-12-20T03:40:57;4.80;99.90
41944;DHT22;27636;52.610;13.244;2022-12-20T03:46:00;4.70;99.90
41944;DHT22;27636;52.610;13.244;2022-12-20T03:51:10;4.50;99.90
41944;DHT22;27636;52.610;13.244;2022-12-20T03:56:14;4.10;99.90
41944;DHT22;27636;52.610;13.244;2022-12-20T04:01:21;3.90;99.90
41944;DHT22;27636;52.610;13.244;2022-12-20T04:06:26;3.70;99.90
41944;DHT22;27636;52.610;13.244;2022-12-20T04:11:30;3.60;99.90
41944;DHT22;27636;52.610;13.244;2022-12-20T04:16:43;3.60;99.90
41944;DHT22;27636;52.610;13.244;2022-12-20T04:21:49;3.60;99.90
41944;DHT22;27636;52.610;13.244;2022-12-20T04:26:54;3.60;99.90
41944;DHT22;27636;52.610;13.244;2022-12-20T04:31:58;3.50;99.90
41944;DHT22;27636;52.610;13.244;2022-12-20T04:37:03;3.40;99.90
41944;DHT22;27636;52.610;13.244;2022-12-20T04:42:19;3.60;99.90
41944;DHT22;27636;52.610;13.244;2022-12-20T04:47:22;3.50;99.90
41944;DHT22;27636;52.610;13.244;2022-12-20T04:52:29;3.50;99.90
41944;DHT22;27636;52.610;13.244;2022-12-20T04:57:51;3.40;99.90
41944;DHT22;27636;52.610;13.244;2022-12-20T05:02:55;3.30;99.90
41944;DHT22;27636;52.610;13.244;2022-12-20T05:08:01;3.30;99.90
41944;DHT22;27636;52.610;13.244;2022-12-20T05:13:05;3.20;99.90
41944;DHT22;27636;52.610;13.244;2022-12-20T05:18:16;3.50;99.90
41944;DHT22;27636;52.610;13.244;2022-12-20T05:23:27;3.90;99.90
41944;DHT22;27636;52.610;13.244;2022-12-20T05:28:53;3.90;99.90
41944;DHT22;27636;52.610;13.244;2022-12-20T05:33:57;4.00;99.90
41944;DHT22;27636;52.610;13.244;2022-12-20T05:39:06;4.30;99.90
41944;DHT22;27636;52.610;13.244;2022-12-20T05:44:13;4.50;99.90
41944;DHT22;27636;52.610;13.244;2022-12-20T05:49:20;4.40;99.90
41944;DHT22;27636;52.610;13.244;2022-12-20T05:54:25;4.70;99.90
41944;DHT22;27636;52.610;13.244;2022-12-20T05:59:40;4.80;99.90
41944;DHT22;27636;52.610;13.244;2022-12-20T06:04:52;4.80;99.90
41944;DHT22;27636;52.610;13.244;2022-12-20T06:09:59;4.90;99.90
41944;DHT22;27636;52.610;13.244;2022-12-20T06:15:15;4.90;99.90
41944;DHT22;27636;52.610;13.244;2022-12-20T06:20:18;4.80;99.90
41944;DHT22;27636;52.610;13.244;2022-12-20T06:25:25;4.90;99.90
41944;DHT22;27636;52.610;13.244;2022-12-20T06:30:29;4.80;99.90
41944;DHT22;27636;52.610;13.244;2022-12-20T06:35:42;5.00;99.90
41944;DHT22;27636;52.610;13.244;2022-12-20T06:40:47;5.10;99.90
41944;DHT22;27636;52.610;13.244;2022-12-20T06:45:50;5.10;99.90
41944;DHT22;27636;52.610;13.244;2022-12-20T06:50:53;5.00;99.90
41944;DHT22;27636;52.610;13.244;2022-12-20T06:56:01;4.90;99.90
41944;DHT22;27636;52.610;13.244;2022-12-20T07:01:06;4.90;99.90
41944;DHT22;27636;52.610;13.244;2022-12-20T07:06:12;4.90;99.90
41944;DHT22;27636;52.610;13.244;2022-12-20T07:11:20;4.90;99.90
41944;DHT22;27636;52.610;13.244;2022-12-20T07:16:29;5.00;99.90
41944;DHT22;27636;52.610;13.244;2022-12-20T07:21:35;5.00;99.90
41944;DHT22;27636;52.610;13.244;2022-12-20T07:26:40;5.10;99.90
41944;DHT22;27636;52.610;13.244;2022-12-20T07:31:45;5.10;99.90
41944;DHT22;27636;52.610;13.244;2022-12-20T07:36:49;5.00;99.90
41944;DHT22;27636;52.610;13.244;2022-12-20T07:41:54;5.00;99.90
41944;DHT22;27636;52.610;13.244;2022-12-20T07:46:58;5.00;99.90
41944;DHT22;27636;52.610;13.244;2022-12-20T07:52:03;5.00;99.90
41944;DHT22;27636;52.610;13.244;2022-12-20T07:57:14;5.10;99.90
41944;DHT22;27636;52.610;13.244;2022-12-20T08:02:24;5.10;99.90
41944;DHT22;27636;52.610;13.244;2022-12-20T08:07:30;5.10;99.90
41944;DHT22;27636;52.610;13.244;2022-12-20T08:12:35;5.10;99.90
41944;DHT22;27636;52.610;13.244;2022-12-20T08:17:38;5.10;99.90
41944;DHT22;27636;52.610;13.244;2022-12-20T08:22:42;5.10;99.90
41944;DHT22;27636;52.610;13.244;2022-12-20T08:27:47;5.20;99.90
41944;DHT22;27636;52.610;13.244;2022-12-20T08:32:50;5.20;99.90
41944;DHT22;27636;52.610;13.244;2022-12-20T08:37:54;5.30;99.90
41944;DHT22;27636;52.610;13.244;2022-12-20T08:42:59;5.30;99.90
41944;DHT22;27636;52.610;13.244;2022-12-20T08:48:10;5.40;99.90
41944;DHT22;27636;52.610;13.244;2022-12-20T08:53:13;5.50;99.90
41944;DHT22;27636;52.610;13.244;2022-12-20T08:58:18;5.50;99.90
41944;DHT22;27636;52.610;13.244;2022-12-20T09:03:21;5.70;99.90
41944;DHT22;27636;52.610;13.244;2022-12-20T09:08:26;5.50;99.90
41944;DHT22;27636;52.610;13.244;2022-12-20T09:13:30;5.70;99.90
41944;DHT22;27636;52.610;13.244;2022-12-20T09:18:37;5.80;99.90
41944;DHT22;27636;52.610;13.244;2022-12-20T09:23:40;6.00;99.90
41944;DHT22;27636;52.610;13.244;2022-12-20T09:28:45;6.20;99.90
41944;DHT22;27636;52.610;13.244;2022-12-20T09:33:51;6.30;99.90
41944;DHT22;27636;52.610;13.244;2022-12-20T09:38:55;6.50;99.90
41944;DHT22;27636;52.610;13.244;2022-12-20T09:44:06;6.60;99.90
41944;DHT22;27636;52.610;13.244;2022-12-20T09:49:16;6.60;99.90
41944;DHT22;27636;52.610;13.244;2022-12-20T09:54:28;6.60;99.90
41944;DHT22;27636;52.610;13.244;2022-12-20T09:59:37;6.70;99.90
41944;DHT22;27636;52.610;13.244;2022-12-20T10:04:52;6.80;99.90
41944;DHT22;27636;52.610;13.244;2022-12-20T10:10:34;7.00;99.90
41944;DHT22;27636;52.610;13.244;2022-12-20T10:15:46;7.20;99.90
41944;DHT22;27636;52.610;13.244;2022-12-20T10:20:56;7.20;99.90
41944;DHT22;27636;52.610;13.244;2022-12-20T10:26:08;7.20;99.90
41944;DHT22;27636;52.610;13.244;2022-12-20T10:31:15;7.30;99.90
41944;DHT22;27636;52.610;13.244;2022-12-20T10:36:21;7.50;99.90
41944;DHT22;27636;52.610;13.244;2022-12-20T10:41:27;7.40;99.90
41944;DHT22;27636;52.610;13.244;2022-12-20T10:46:38;7.50;99.90
41944;DHT22;27636;52.610;13.244;2022-12-20T10:51:50;7.40;99.90
41944;DHT22;27636;52.610;13.244;2022-12-20T10:56:55;7.40;99.90
41944;DHT22;27636;52.610;13.244;2022-12-20T11:02:07;7.40;99.90
41944;DHT22;27636;52.610;13.244;2022-12-20T11:07:26;7.50;99.90
41944;DHT22;27636;52.610;13.244;2022-12-20T11:12:30;7.50;99.90
41944;DHT22;27636;52.610;13.244;2022-12-20T11:17:37;7.40;99.90
41944;DHT22;27636;52.610;13.244;2022-12-20T11:22:50;7.40;99.90
41944;DHT22;27636;52.610;13.244;2022-12-20T11:28:07;7.60;99.90
41944;DHT22;27636;52.610;13.244;2022-12-20T11:33:36;7.60;99.90
41944;DHT22;27636;52.610;13.244;2022-12-20T11:38:46;7.60;99.90
41944;DHT22;27636;52.610;13.244;2022-12-20T11:44:00;7.60;99.90
41944;DHT22;27636;52.610;13.244;2022-12-20T11:49:51;7.90;99.90
41944;DHT22;27636;52.610;13.244;2022-12-20T11:55:01;8.10;99.90
41944;DHT22;27636;52.610;13.244;2022-12-20T12:00:12;8.00;99.90
41944;DHT22;27636;52.610;13.244;2022-12-20T12:05:20;8.00;99.90
41944;DHT22;27636;52.610;13.244;2022-12-20T12:10:31;8.10;99.90
41944;DHT22;27636;52.610;13.244;2022-12-20T12:15:44;8.30;99.90
41944;DHT22;27636;52.610;13.244;2022-12-20T12:20:55;8.30;99.90
41944;DHT22;27636;52.610;13.244;2022-12-20T12:26:11;8.30;99.90
41944;DHT22;27636;52.610;13.244;2022-12-20T12:31:19;8.30;99.90
41944;DHT22;27636;52.610;13.244;2022-12-20T12:36:37;8.20;99.90
41944;DHT22;27636;52.610;13.244;2022-12-20T12:47:44;8.30;99.90
41944;DHT22;27636;52.610;13.244;2022-12-20T12:52:52;8.20;99.90
41944;DHT22;27636;52.610;13.244;2022-12-20T12:57:57;8.20;99.90
41944;DHT22;27636;52.610;13.244;2022-12-20T13:03:12;8.20;99.90
41944;DHT22;27636;52.610;13.244;2022-12-20T13:08:18;8.20;99.90
41944;DHT22;27636;52.610;13.244;2022-12-20T13:13:22;8.30;99.90
41944;DHT22;27636;52.610;13.244;2022-12-20T13:18:26;8.10;99.90
41944;DHT22;27636;52.610;13.244;2022-12-20T13:23:31;8.10;99.90
41944;DHT22;27636;52.610;13.244;2022-12-20T13:28:43;8.00;99.90
41944;DHT22;27636;52.610;13.244;2022-12-20T13:33:47;7.80;99.90
41944;DHT22;27636;52.610;13.244;2022-12-20T13:38:55;8.00;99.90
41944;DHT22;27636;52.610;13.244;2022-12-20T13:44:02;8.00;99.90
41944;DHT22;27636;52.610;13.244;2022-12-20T13:49:13;8.10;99.90
41944;DHT22;27636;52.610;13.244;2022-12-20T13:54:20;8.00;99.90
41944;DHT22;27636;52.610;13.244;2022-12-20T13:59:30;7.90;99.90
41944;DHT22;27636;52.610;13.244;2022-12-20T14:04:40;7.80;99.90
41944;DHT22;27636;52.610;13.244;2022-12-20T14:09:54;7.70;99.90
41944;DHT22;27636;52.610;13.244;2022-12-20T14:14:58;7.70;99.90
41944;DHT22;27636;52.610;13.244;2022-12-20T14:20:13;7.60;99.90
41944;DHT22;27636;52.610;13.244;2022-12-20T14:25:30;7.70;99.90
41944;DHT22;27636;52.610;13.244;2022-12-20T14:30:41;7.60;99.90
41944;DHT22;27636;52.610;13.244;2022-12-20T14:35:46;7.70;99.90
41944;DHT22;27636;52.610;13.244;2022-12-20T14:40:51;7.50;99.90
41944;DHT22;27636;52.610;13.244;2022-12-20T14:46:16;7.50;99.90
41944;DHT22;27636;52.610;13.244;2022-12-20T14:51:21;7.50;99.90
41944;DHT22;27636;52.610;13.244;2022-12-20T14:56:26;7.30;99.90
41944;DHT22;27636;52.610;13.244;2022-12-20T15:01:34;7.40;99.90
41944;DHT22;27636;52.610;13.244;2022-12-20T15:12:31;7.20;99.90
41944;DHT22;27636;52.610;13.244;2022-12-20T15:17:42;7.30;99.90
41944;DHT22;27636;52.610;13.244;2022-12-20T15:22:46;7.30;99.90
41944;DHT22;27636;52.610;13.244;2022-12-20T15:27:50;7.20;99.90
41944;DHT22;27636;52.610;13.244;2022-12-20T15:32:54;7.30;99.90
41944;DHT22;27636;52.610;13.244;2022-12-20T15:37:58;7.20;99.90
41944;DHT22;27636;52.610;13.244;2022-12-20T15:43:03;7.20;99.90
41944;DHT22;27636;52.610;13.244;2022-12-20T15:48:12;7.10;99.90
41944;DHT22;27636;52.610;13.244;2022-12-20T15:53:17;7.10;99.90
41944;DHT22;27636;52.610;13.244;2022-12-20T15:58:26;7.10;99.90
41944;DHT22;27636;52.610;13.244;2022-12-20T16:03:30;6.90;99.90
41944;DHT22;27636;52.610;13.244;2022-12-20T16:08:34;6.80;99.90
41944;DHT22;27636;52.610;13.244;2022-12-20T16:13:39;6.90;99.90
41944;DHT22;27636;52.610;13.244;2022-12-20T16:18:42;6.80;99.90
41944;DHT22;27636;52.610;13.244;2022-12-20T16:23:47;6.70;99.90
41944;DHT22;27636;52.610;13.244;2022-12-20T16:28:55;6.70;99.90
41944;DHT22;27636;52.610;13.244;2022-12-20T16:34:00;6.80;99.90
41944;DHT22;27636;52.610;13.244;2022-12-20T16:39:05;6.60;99.90
41944;DHT22;27636;52.610;13.244;2022-12-20T16:44:13;6.50;99.90
41944;DHT22;27636;52.610;13.244;2022-12-20T16:49:17;6.50;99.90
41944;DHT22;27636;52.610;13.244;2022-12-20T16:54:23;6.50;99.90
41944;DHT22;27636;52.610;13.244;2022-12-20T16:59:28;6.60;99.90
41944;DHT22;27636;52.610;13.244;2022-12-20T17:04:31;6.50;99.90
41944;DHT22;27636;52.610;13.244;2022-12-20T17:09:34;6.40;99.90
41944;DHT22;27636;52.610;13.244;2022-12-20T17:14:39;6.30;99.90
41944;DHT22;27636;52.610;13.244;2022-12-20T17:19:42;6.70;99.90
41944;DHT22;27636;52.610;13.244;2022-12-20T17:24:46;6.50;99.90
41944;DHT22;27636;52.610;13.244;2022-12-20T17:29:50;6.50;99.90
41944;DHT22;27636;52.610;13.244;2022-12-20T17:34:54;6.70;99.90
41944;DHT22;27636;52.610;13.244;2022-12-20T17:39:57;6.90;99.90
41944;DHT22;27636;52.610;13.244;2022-12-20T17:45:03;6.80;99.90
41944;DHT22;27636;52.610;13.244;2022-12-20T17:50:07;6.70;99.90
41944;DHT22;27636;52.610;13.244;2022-12-20T17:55:41;6.90;99.90
41944;DHT22;27636;52.610;13.244;2022-12-20T18:00:51;6.80;99.90
41944;DHT22;27636;52.610;13.244;2022-12-20T18:05:54;6.90;99.90
41944;DHT22;27636;52.610;13.244;2022-12-20T18:10:57;7.00;99.90
41944;DHT22;27636;52.610;13.244;2022-12-20T18:16:05;7.10;99.90
41944;DHT22;27636;52.610;13.244;2022-12-20T18:21:10;7.00;99.90
41944;DHT22;27636;52.610;13.244;2022-12-20T18:26:17;7.00;99.90
41944;DHT22;27636;52.610;13.244;2022-12-20T18:31:23;6.80;99.90
41944;DHT22;27636;52.610;13.244;2022-12-20T18:36:29;6.60;99.90
41944;DHT22;27636;52.610;13.244;2022-12-20T18:41:34;6.40;99.90
41944;DHT22;27636;52.610;13.244;2022-12-20T18:46:39;6.40;99.90
41944;DHT22;27636;52.610;13.244;2022-12-20T19:12:03;6.50;99.90
41944;DHT22;27636;52.610;13.244;2022-12-20T19:17:17;6.50;99.90
41944;DHT22;27636;52.610;13.244;2022-12-20T19:23:08;6.50;99.90
41944;DHT22;27636;52.610;13.244;2022-12-20T19:28:13;6.60;99.90
41944;DHT22;27636;52.610;13.244;2022-12-20T19:33:16;6.60;99.90
41944;DHT22;27636;52.610;13.244;2022-12-20T19:38:20;6.70;99.90
41944;DHT22;27636;52.610;13.244;2022-12-20T19:43:25;6.50;99.90
41944;DHT22;27636;52.610;13.244;2022-12-20T19:48:31;6.40;99.90
41944;DHT22;27636;52.610;13.244;2022-12-20T19:53:35;6.20;99.90
41944;DHT22;27636;52.610;13.244;2022-12-20T19:58:40;6.20;99.90
41944;DHT22;27636;52.610;13.244;2022-12-20T20:03:44;6.10;99.90
41944;DHT22;27636;52.610;13.244;2022-12-20T20:08:48;6.00;99.90
41944;DHT22;27636;52.610;13.244;2022-12-20T20:13:57;6.00;99.90
41944;DHT22;27636;52.610;13.244;2022-12-20T20:19:03;6.10;99.90
41944;DHT22;27636;52.610;13.244;2022-12-20T20:24:08;6.00;99.90
41944;DHT22;27636;52.610;13.244;2022-12-20T20:29:13;6.10;99.90
41944;DHT22;27636;52.610;13.244;2022-12-20T20:34:16;6.00;99.90
41944;DHT22;27636;52.610;13.244;2022-12-20T20:39:20;5.90;99.90
41944;DHT22;27636;52.610;13.244;2022-12-20T20:44:26;5.90;99.90
41944;DHT22;27636;52.610;13.244;2022-12-20T20:49:29;5.70;99.90
41944;DHT22;27636;52.610;13.244;2022-12-20T20:54:33;5.70;99.90
41944;DHT22;27636;52.610;13.244;2022-12-20T20:59:38;6.00;99.90
41944;DHT22;27636;52.610;13.244;2022-12-20T21:04:41;6.10;99.90
41944;DHT22;27636;52.610;13.244;2022-12-20T21:10:04;6.00;99.90
41944;DHT22;27636;52.610;13.244;2022-12-20T21:15:25;6.00;99.90
41944;DHT22;27636;52.610;13.244;2022-12-20T21:20:39;6.10;99.90
41944;DHT22;27636;52.610;13.244;2022-12-20T21:25:54;6.10;99.90
41944;DHT22;27636;52.610;13.244;2022-12-20T21:31:03;6.20;99.90
41944;DHT22;27636;52.610;13.244;2022-12-20T21:36:27;6.30;99.90
41944;DHT22;27636;52.610;13.244;2022-12-20T21:41:34;6.30;99.90
41944;DHT22;27636;52.610;13.244;2022-12-20T21:46:43;6.20;99.90
41944;DHT22;27636;52.610;13.244;2022-12-20T21:51:55;6.20;99.90
41944;DHT22;27636;52.610;13.244;2022-12-20T21:57:12;6.20;99.90
41944;DHT22;27636;52.610;13.244;2022-12-20T22:02:19;6.10;99.90
41944;DHT22;27636;52.610;13.244;2022-12-20T22:07:28;6.00;99.90
41944;DHT22;27636;52.610;13.244;2022-12-20T22:12:34;5.70;99.90
41944;DHT22;27636;52.610;13.244;2022-12-20T22:17:42;6.00;99.90
41944;DHT22;27636;52.610;13.244;2022-12-20T22:22:50;5.90;99.90
41944;DHT22;27636;52.610;13.244;2022-12-20T22:27:59;5.90;99.90
41944;DHT22;27636;52.610;13.244;2022-12-20T22:33:11;5.90;99.90
41944;DHT22;27636;52.610;13.244;2022-12-20T22:38:22;6.00;99.90
41944;DHT22;27636;52.610;13.244;2022-12-20T22:43:34;6.10;99.90
41944;DHT22;27636;52.610;13.244;2022-12-20T22:48:48;5.80;99.90
41944;DHT22;27636;52.610;13.244;2022-12-20T22:54:03;5.70;99.90
41944;DHT22;27636;52.610;13.244;2022-12-20T22:59:10;6.00;99.90
41944;DHT22;27636;52.610;13.244;2022-12-20T23:04:17;5.90;99.90
41944;DHT22;27636;52.610;13.244;2022-12-20T23:09:22;5.80;99.90
41944;DHT22;27636;52.610;13.244;2022-12-20T23:14:33;5.60;99.90
41944;DHT22;27636;52.610;13.244;2022-12-20T23:20:10;5.50;99.90
41944;DHT22;27636;52.610;13.244;2022-12-20T23:25:33;5.70;99.90
41944;DHT22;27636;52.610;13.244;2022-12-20T23:30:37;5.80;99.90
41944;DHT22;27636;52.610;13.244;2022-12-20T23:35:55;5.80;99.90
41944;DHT22;27636;52.610;13.244;2022-12-20T23:41:04;5.90;99.90
41944;DHT22;27636;52.610;13.244;2022-12-20T23:46:14;5.80;99.90
41944;DHT22;27636;52.610;13.244;2022-12-20T23:51:29;5.80;99.90
41944;DHT22;27636;52.610;13.244;2022-12-20T23:56:42;5.60;99.90
